createdAt,value
2022-10-17T00:00:00.196Z,101531.47
2022-10-17T00:03:02.678Z,101530.38
2022-10-17T00:06:08.269Z,101535.56
2022-10-17T00:09:10.409Z,101533.94
2022-10-17T00:12:12.738Z,101535.34
2022-10-17T00:15:17.141Z,101539.97
2022-10-17T00:18:19.498Z,101541.06
2022-10-17T00:21:22.977Z,101539.75
2022-10-17T00:24:25.381Z,101541.06
2022-10-17T00:27:27.638Z,101540.28
2022-10-17T00:30:30.304Z,101541.09
2022-10-17T00:33:33.549Z,101535.44
2022-10-17T00:36:35.935Z,101534.63
2022-10-17T00:39:38.598Z,101538.66
2022-10-17T00:42:40.957Z,101533.00
2022-10-17T00:45:43.046Z,101535.97
2022-10-17T00:48:49.998Z,101536.25
2022-10-17T00:51:58.878Z,101551.38
2022-10-17T00:55:18.014Z,101543.84
2022-10-17T00:58:20.999Z,101544.94
2022-10-17T01:01:23.676Z,101535.44
2022-10-17T01:04:25.944Z,101536.03
2022-10-17T01:07:33.162Z,101533.62
2022-10-17T01:11:09.294Z,101528.22
2022-10-17T01:14:20.738Z,101529.31
2022-10-17T01:17:50.695Z,101530.62
2022-10-17T01:21:21.363Z,101532.28
2022-10-17T01:24:35.816Z,101537.12
2022-10-17T01:28:00.421Z,101532.28
2022-10-17T01:31:08.277Z,101532.59
2022-10-17T01:34:14.422Z,101525.03
2022-10-17T01:37:31.580Z,101532.03
2022-10-17T01:40:42.927Z,101532.59
2022-10-17T01:43:52.816Z,101530.72
2022-10-17T01:47:03.437Z,101531.25
2022-10-17T01:50:18.140Z,101537.44
2022-10-17T01:53:37.551Z,101534.50
2022-10-17T01:56:42.302Z,101535.59
2022-10-17T01:59:49.558Z,101539.91
2022-10-17T02:03:04.583Z,101541.81
2022-10-17T02:06:07.774Z,101547.72
2022-10-17T02:09:23.249Z,101544.22
2022-10-17T02:12:44.847Z,101534.22
2022-10-17T02:16:14.827Z,101545.81
2022-10-17T02:19:24.048Z,101539.91
2022-10-17T02:22:43.930Z,101535.06
2022-10-17T02:25:59.765Z,101538.03
2022-10-17T02:29:17.606Z,101548.03
2022-10-17T02:32:52.094Z,101543.19
2022-10-17T02:36:00.429Z,101547.22
2022-10-17T02:39:05.611Z,101552.37
2022-10-17T02:42:11.325Z,101557.25
2022-10-17T02:45:15.643Z,101561.81
2022-10-17T02:48:38.697Z,101561.84
2022-10-17T02:51:52.922Z,101563.44
2022-10-17T02:55:01.102Z,101569.69
2022-10-17T02:58:12.078Z,101570.22
2022-10-17T03:01:15.651Z,101574.00
2022-10-17T03:04:19.518Z,101568.59
2022-10-17T03:07:21.708Z,101570.19
2022-10-17T03:10:24.123Z,101579.94
2022-10-17T03:13:26.386Z,101574.25
2022-10-17T03:16:28.942Z,101571.84
2022-10-17T03:19:31.357Z,101574.25
2022-10-17T03:22:34.050Z,101575.31
2022-10-17T03:25:36.924Z,101575.06
2022-10-17T03:28:40.797Z,101582.09
2022-10-17T03:31:42.969Z,101591.00
2022-10-17T03:34:45.797Z,101589.66
2022-10-17T03:37:48.039Z,101596.13
2022-10-17T03:40:56.880Z,101596.37
2022-10-17T03:43:59.050Z,101602.84
2022-10-17T03:47:02.435Z,101602.59
2022-10-17T03:50:05.938Z,101609.87
2022-10-17T03:53:08.678Z,101611.78
2022-10-17T03:56:29.087Z,101609.06
2022-10-17T03:59:32.342Z,101608.81
2022-10-17T04:02:35.245Z,101615.56
2022-10-17T04:05:37.627Z,101609.06
2022-10-17T04:08:40.223Z,101616.66
2022-10-17T04:11:43.078Z,101612.59
2022-10-17T04:14:45.226Z,101621.22
2022-10-17T04:17:49.568Z,101620.41
2022-10-17T04:20:52.324Z,101626.34
2022-10-17T04:23:56.106Z,101631.75
2022-10-17T04:27:01.064Z,101636.34
2022-10-17T04:30:03.866Z,101635.00
2022-10-17T04:33:06.333Z,101632.56
2022-10-17T04:36:14.096Z,101642.03
2022-10-17T04:39:16.282Z,101636.63
2022-10-17T04:42:18.707Z,101640.94
2022-10-17T04:45:21.147Z,101644.47
2022-10-17T04:48:24.498Z,101649.06
2022-10-17T04:51:26.885Z,101651.75
2022-10-17T04:54:31.657Z,101645.00
2022-10-17T04:57:35.684Z,101653.34
2022-10-17T05:00:38.775Z,101649.59
2022-10-17T05:03:41.064Z,101655.00
2022-10-17T05:06:43.430Z,101658.75
2022-10-17T05:09:46.716Z,101661.72
2022-10-17T05:12:50.308Z,101663.63
2022-10-17T05:15:53.191Z,101667.69
2022-10-17T05:18:57.844Z,101662.00
2022-10-17T05:22:02.352Z,101669.03
2022-10-17T05:25:05.204Z,101675.53
2022-10-17T05:28:07.273Z,101684.69
2022-10-17T05:31:11.631Z,101687.13
2022-10-17T05:34:14.158Z,101686.84
2022-10-17T05:37:16.791Z,101688.47
2022-10-17T05:40:20.699Z,101697.09
2022-10-17T05:43:26.962Z,101707.66
2022-10-17T05:46:29.152Z,101709.28
2022-10-17T05:49:44.707Z,101705.22
2022-10-17T05:52:55.280Z,101707.13
2022-10-17T05:56:03.110Z,101721.97
2022-10-17T05:59:06.135Z,101718.47
2022-10-17T06:02:12.185Z,101727.09
2022-10-17T06:05:15.421Z,101734.94
2022-10-17T06:08:19.907Z,101734.94
2022-10-17T06:11:25.880Z,101733.34
2022-10-17T06:14:28.279Z,101746.28
2022-10-17T06:17:31.056Z,101750.62
2022-10-17T06:20:33.273Z,101746.56
2022-10-17T06:23:36.101Z,101757.66
2022-10-17T06:26:38.478Z,101765.75
2022-10-17T06:29:41.848Z,101759.03
2022-10-17T06:32:44.476Z,101759.81
2022-10-17T06:35:54.841Z,101769.53
2022-10-17T06:38:57.280Z,101771.69
2022-10-17T06:42:00.891Z,101773.84
2022-10-17T06:45:08.513Z,101782.47
2022-10-17T06:48:11.042Z,101783.00
2022-10-17T06:51:14.385Z,101783.00
2022-10-17T06:54:18.002Z,101792.19
2022-10-17T06:57:20.591Z,101798.66
2022-10-17T07:00:23.688Z,101804.06
2022-10-17T07:03:26.437Z,101800.78
2022-10-17T07:06:28.895Z,101802.16
2022-10-17T07:09:32.864Z,101796.44
2022-10-17T07:12:35.748Z,101807.22
2022-10-17T07:15:38.787Z,101805.31
2022-10-17T07:18:42.111Z,101805.28
2022-10-17T07:21:44.235Z,101812.28
2022-10-17T07:24:46.804Z,101814.97
2022-10-17T07:27:50.540Z,101808.97
2022-10-17T07:30:54.462Z,101808.97
2022-10-17T07:33:58.965Z,101814.88
2022-10-17T07:37:02.097Z,101805.63
2022-10-17T07:40:06.581Z,101813.44
2022-10-17T07:43:09.188Z,101819.09
2022-10-17T07:46:12.331Z,101814.47
2022-10-17T07:49:14.937Z,101814.16
2022-10-17T07:52:17.333Z,101814.91
2022-10-17T07:55:20.254Z,101818.97
2022-10-17T07:58:22.333Z,101821.59
2022-10-17T08:01:25.835Z,101819.38
2022-10-17T08:04:29.019Z,101813.63
2022-10-17T08:07:31.525Z,101821.69
2022-10-17T08:10:33.937Z,101827.53
2022-10-17T08:13:36.884Z,101835.72
2022-10-17T08:16:40.362Z,101833.84
2022-10-17T08:19:42.522Z,101837.41
2022-10-17T08:22:52.049Z,101843.63
2022-10-17T08:25:54.177Z,101845.91
2022-10-17T08:28:56.928Z,101847.75
2022-10-17T08:32:01.444Z,101848.41
2022-10-17T08:35:04.976Z,101839.94
2022-10-17T08:38:09.038Z,101845.03
2022-10-17T08:41:23.997Z,101840.91
2022-10-17T08:44:38.303Z,101839.87
2022-10-17T08:47:51.964Z,101838.13
2022-10-17T08:50:58.087Z,101832.00
2022-10-17T08:54:16.801Z,101840.47
2022-10-17T08:57:39.604Z,101837.81
2022-10-17T09:01:00.832Z,101839.81
2022-10-17T09:04:02.770Z,101839.53
2022-10-17T09:07:17.125Z,101840.66
2022-10-17T09:10:44.819Z,101833.41
2022-10-17T09:13:54.479Z,101833.56
2022-10-17T09:17:08.774Z,101832.12
2022-10-17T09:20:21.341Z,101840.78
2022-10-17T09:23:31.171Z,101834.19
2022-10-17T09:26:33.592Z,101832.41
2022-10-17T09:29:40.174Z,101835.66
2022-10-17T09:32:47.616Z,101830.81
2022-10-17T09:35:51.003Z,101831.94
2022-10-17T09:38:59.010Z,101838.81
2022-10-17T09:42:02.906Z,101834.53
2022-10-17T09:45:26.024Z,101830.66
2022-10-17T09:48:35.063Z,101844.00
2022-10-17T09:51:38.788Z,101835.19
2022-10-17T09:54:51.632Z,101838.72
2022-10-17T09:57:59.696Z,101820.25
2022-10-17T10:01:23.682Z,101831.50
2022-10-17T10:04:30.200Z,101833.59
2022-10-17T10:07:38.806Z,101836.50
2022-10-17T10:10:43.269Z,101837.63
2022-10-17T10:13:48.423Z,101827.78
2022-10-17T10:16:53.761Z,101823.13
2022-10-17T10:19:56.349Z,101821.78
2022-10-17T10:23:06.270Z,101825.34
2022-10-17T10:26:24.497Z,101826.78
2022-10-17T10:29:50.823Z,101816.41
2022-10-17T10:32:52.986Z,101821.75
2022-10-17T10:36:01.987Z,101820.47
2022-10-17T10:39:06.005Z,101820.44
2022-10-17T10:42:19.892Z,101818.47
2022-10-17T10:45:48.027Z,101811.00
2022-10-17T10:48:59.670Z,101814.75
2022-10-17T10:52:04.290Z,101810.88
2022-10-17T10:55:29.618Z,101814.34
2022-10-17T10:58:54.119Z,101814.44
2022-10-17T11:02:15.448Z,101808.09
2022-10-17T11:05:42.347Z,101800.59
2022-10-17T11:08:57.423Z,101804.13
2022-10-17T11:12:11.839Z,101799.06
2022-10-17T11:15:25.232Z,101802.87
2022-10-17T11:19:13.685Z,101804.19
2022-10-17T11:22:26.673Z,101804.03
2022-10-17T11:25:34.544Z,101797.34
2022-10-17T11:28:37.487Z,101787.19
2022-10-17T11:31:47.983Z,101792.87
2022-10-17T11:34:56.908Z,101787.56
2022-10-17T11:38:21.156Z,101777.53
2022-10-17T11:41:37.504Z,101779.84
2022-10-17T11:44:41.399Z,101778.06
2022-10-17T11:47:54.232Z,101774.56
2022-10-17T11:54:56.153Z,101773.31
2022-10-17T11:58:19.854Z,101765.78
2022-10-17T12:01:54.850Z,101767.97
2022-10-17T12:05:10.092Z,101763.50
2022-10-17T12:08:35.164Z,101766.84
2022-10-17T12:11:56.911Z,101763.06
2022-10-17T12:15:24.331Z,101758.25
2022-10-17T12:18:29.883Z,101751.59
2022-10-17T12:21:56.763Z,101752.53
2022-10-17T12:25:01.654Z,101743.62
2022-10-17T12:28:10.539Z,101743.75
2022-10-17T12:31:15.970Z,101740.66
2022-10-17T12:34:22.330Z,101739.19
2022-10-17T12:37:42.747Z,101737.59
2022-10-17T12:40:49.009Z,101733.44
2022-10-17T12:43:53.910Z,101728.06
2022-10-17T12:47:11.127Z,101726.84
2022-10-17T12:51:17.681Z,101729.22
2022-10-17T12:54:24.039Z,101726.22
2022-10-17T12:57:51.618Z,101724.63
2022-10-17T13:01:22.496Z,101722.66
2022-10-17T13:04:20.063Z,101724.13
2022-10-17T13:07:23.265Z,101721.50
2022-10-17T13:10:29.016Z,101722.09
2022-10-17T13:13:33.777Z,101720.97
2022-10-17T13:16:51.033Z,101712.84
2022-10-17T13:19:53.828Z,101711.94
2022-10-17T13:23:00.054Z,101716.97
2022-10-17T13:26:16.454Z,101711.47
2022-10-17T13:29:21.167Z,101707.34
2022-10-17T13:32:25.782Z,101714.78
2022-10-17T13:39:12.526Z,101709.28
2022-10-17T13:42:27.840Z,101708.72
2022-10-17T13:45:36.851Z,101704.34
2022-10-17T13:48:39.312Z,101699.41
2022-10-17T13:51:47.015Z,101701.91
2022-10-17T13:54:51.329Z,101702.16
2022-10-17T13:57:53.618Z,101706.62
2022-10-17T14:00:56.667Z,101699.88
2022-10-17T14:04:20.181Z,101704.91
2022-10-17T14:07:46.190Z,101695.06
2022-10-17T14:10:54.452Z,101696.44
2022-10-17T14:13:57.998Z,101693.00
2022-10-17T14:17:00.572Z,101693.69
2022-10-17T14:20:29.686Z,101691.50
2022-10-17T14:23:34.109Z,101689.12
2022-10-17T14:26:50.265Z,101687.72
2022-10-17T14:29:55.041Z,101679.12
2022-10-17T14:33:01.433Z,101679.72
2022-10-17T14:36:05.356Z,101681.88
2022-10-17T14:39:18.329Z,101687.47
2022-10-17T14:42:22.595Z,101696.41
2022-10-17T14:45:30.815Z,101692.81
2022-10-17T14:48:33.410Z,101690.41
2022-10-17T14:51:50.188Z,101697.25
2022-10-17T14:54:59.573Z,101686.50
2022-10-17T14:58:01.789Z,101692.06
2022-10-17T15:01:04.149Z,101685.31
2022-10-17T15:04:10.649Z,101687.28
2022-10-17T15:07:15.519Z,101681.88
2022-10-17T15:10:35.157Z,101687.13
2022-10-17T15:13:42.187Z,101684.13
2022-10-17T15:16:46.826Z,101692.28
2022-10-17T15:19:50.684Z,101692.66
2022-10-17T15:22:54.668Z,101694.00
2022-10-17T15:25:57.030Z,101694.53
2022-10-17T15:28:59.848Z,101695.06
2022-10-17T15:32:05.368Z,101701.06
2022-10-17T15:35:08.399Z,101702.59
2022-10-17T15:38:17.779Z,101701.19
2022-10-17T15:41:20.159Z,101694.44
2022-10-17T15:44:22.918Z,101706.41
2022-10-17T15:47:28.122Z,101709.50
2022-10-17T15:50:30.929Z,101715.37
2022-10-17T15:53:33.012Z,101713.47
2022-10-17T15:56:39.998Z,101715.09
2022-10-17T15:59:42.194Z,101720.44
2022-10-17T16:02:44.803Z,101720.12
2022-10-17T16:05:49.653Z,101712.53
2022-10-17T16:08:52.342Z,101719.97
2022-10-17T16:11:54.860Z,101725.91
2022-10-17T16:14:57.274Z,101723.81
2022-10-17T16:18:01.715Z,101724.63
2022-10-17T16:21:06.448Z,101723.00
2022-10-17T16:24:11.919Z,101733.28
2022-10-17T16:27:14.032Z,101731.16
2022-10-17T16:30:17.266Z,101727.28
2022-10-17T16:33:19.353Z,101736.09
2022-10-17T16:36:22.657Z,101730.44
2022-10-17T16:39:24.802Z,101732.63
2022-10-17T16:42:27.280Z,101741.59
2022-10-17T16:45:30.246Z,101743.16
2022-10-17T16:48:32.610Z,101739.59
2022-10-17T16:51:35.842Z,101744.81
2022-10-17T16:54:38.249Z,101742.88
2022-10-17T17:00:50.969Z,101753.06
2022-10-17T17:03:54.084Z,101748.63
2022-10-17T17:06:56.529Z,101747.78
2022-10-17T17:09:58.618Z,101748.94
2022-10-17T17:13:01.723Z,101750.69
2022-10-17T17:16:10.299Z,101749.97
2022-10-17T17:19:15.162Z,101748.78
2022-10-17T17:22:17.239Z,101751.41
2022-10-17T17:25:19.564Z,101755.69
2022-10-17T17:28:21.734Z,101760.97
2022-10-17T17:31:27.497Z,101766.63
2022-10-17T17:34:29.777Z,101760.34
2022-10-17T17:37:32.409Z,101760.16
2022-10-17T17:40:34.803Z,101762.59
2022-10-17T17:43:37.155Z,101758.38
2022-10-17T17:46:39.419Z,101765.44
2022-10-17T17:49:41.745Z,101758.34
2022-10-17T17:52:45.540Z,101761.69
2022-10-17T17:55:47.905Z,101749.19
2022-10-17T17:58:55.841Z,101753.94
2022-10-17T18:01:58.248Z,101762.81
2022-10-17T18:05:00.629Z,101767.16
2022-10-17T18:08:04.746Z,101761.81
2022-10-17T18:11:07.090Z,101761.41
2022-10-17T18:14:12.458Z,101758.28
2022-10-17T18:17:14.839Z,101757.78
2022-10-17T18:20:16.965Z,101755.94
2022-10-17T18:23:19.536Z,101758.75
2022-10-17T18:26:21.604Z,101760.75
2022-10-17T18:29:23.899Z,101759.13
2022-10-17T18:32:25.999Z,101756.06
2022-10-17T18:35:28.379Z,101756.38
2022-10-17T18:38:31.191Z,101753.34
2022-10-17T18:41:34.004Z,101751.25
2022-10-17T18:44:36.113Z,101758.38
2022-10-17T18:47:38.447Z,101759.00
2022-10-17T18:50:40.499Z,101758.69
2022-10-17T18:53:45.915Z,101756.34
2022-10-17T18:56:51.075Z,101755.78
2022-10-17T18:59:53.493Z,101754.19
2022-10-17T19:02:55.536Z,101757.19
2022-10-17T19:06:02.602Z,101761.59
2022-10-17T19:09:06.955Z,101755.44
2022-10-17T19:12:09.413Z,101763.09
2022-10-17T19:15:11.464Z,101762.28
2022-10-17T19:18:13.801Z,101761.56
2022-10-17T19:21:20.854Z,101762.06
2022-10-17T19:24:26.880Z,101758.66
2022-10-17T19:27:29.254Z,101757.22
2022-10-17T19:30:31.918Z,101754.72
2022-10-17T19:33:34.571Z,101755.63
2022-10-17T19:36:37.634Z,101760.03
2022-10-17T19:39:39.818Z,101760.09
2022-10-17T19:42:42.162Z,101748.41
2022-10-17T19:45:44.261Z,101750.56
2022-10-17T19:48:46.843Z,101749.31
2022-10-17T19:51:48.975Z,101752.41
2022-10-17T19:54:51.370Z,101752.97
2022-10-17T19:57:53.583Z,101754.16
2022-10-17T20:00:58.514Z,101751.50
2022-10-17T20:04:01.080Z,101749.69
2022-10-17T20:07:03.507Z,101755.41
2022-10-17T20:10:06.952Z,101751.66
2022-10-17T20:13:09.774Z,101754.44
2022-10-17T20:16:16.012Z,101754.00
2022-10-17T20:19:19.095Z,101752.72
2022-10-17T20:22:21.477Z,101763.59
2022-10-17T20:25:23.611Z,101751.44
2022-10-17T20:28:27.412Z,101750.41
2022-10-17T20:31:29.915Z,101748.81
2022-10-17T20:34:35.438Z,101743.94
2022-10-17T20:37:41.581Z,101747.81
2022-10-17T20:40:45.399Z,101753.31
2022-10-17T20:43:51.290Z,101758.81
2022-10-17T20:47:01.714Z,101748.56
2022-10-17T20:50:05.002Z,101751.38
2022-10-17T20:53:34.985Z,101748.25
2022-10-17T20:56:31.497Z,101754.00
2022-10-17T20:59:35.989Z,101750.06
2022-10-17T21:02:38.065Z,101748.53
2022-10-17T21:05:40.855Z,101744.53
2022-10-17T21:08:43.853Z,101741.25
2022-10-17T21:11:46.332Z,101747.47
2022-10-17T21:14:48.425Z,101745.16
2022-10-17T21:17:50.801Z,101751.44
2022-10-17T21:20:52.875Z,101747.91
2022-10-17T21:23:58.682Z,101755.78
2022-10-17T21:27:00.825Z,101753.94
2022-10-17T21:30:04.053Z,101749.38
2022-10-17T21:33:06.156Z,101749.38
2022-10-17T21:36:09.700Z,101752.91
2022-10-17T21:39:13.014Z,101753.22
2022-10-17T21:42:15.391Z,101749.72
2022-10-17T21:45:25.297Z,101743.81
2022-10-17T21:48:28.344Z,101744.66
2022-10-17T21:51:30.425Z,101748.47
2022-10-17T21:54:32.822Z,101746.06
2022-10-17T21:57:34.899Z,101743.69
2022-10-17T22:00:37.237Z,101749.97
2022-10-17T22:03:45.673Z,101744.31
2022-10-17T22:06:51.154Z,101744.09
2022-10-17T22:09:53.707Z,101746.84
2022-10-17T22:12:55.782Z,101741.72
2022-10-17T22:16:02.315Z,101743.62
2022-10-17T22:19:06.731Z,101741.00
2022-10-17T22:22:09.411Z,101742.84
2022-10-17T22:25:11.559Z,101737.72
2022-10-17T22:28:13.905Z,101735.81
2022-10-17T22:31:15.951Z,101735.88
2022-10-17T22:34:18.615Z,101736.19
2022-10-17T22:37:20.915Z,101734.81
2022-10-17T22:40:23.257Z,101729.97
2022-10-17T22:43:25.679Z,101731.56
2022-10-17T22:46:28.351Z,101734.81
2022-10-17T22:49:30.452Z,101733.78
2022-10-17T22:52:33.027Z,101734.53
2022-10-17T22:55:35.397Z,101735.37
2022-10-17T22:58:38.431Z,101739.41
2022-10-17T23:01:40.645Z,101735.63
2022-10-17T23:04:43.021Z,101732.91
2022-10-17T23:07:45.142Z,101735.94
2022-10-17T23:10:48.257Z,101721.87
2022-10-17T23:13:50.425Z,101725.41
2022-10-17T23:16:52.790Z,101722.16
2022-10-17T23:19:57.027Z,101716.53
2022-10-17T23:23:00.102Z,101712.75
2022-10-17T23:26:11.141Z,101718.16
2022-10-17T23:29:13.483Z,101710.03
2022-10-17T23:32:15.560Z,101715.72
2022-10-17T23:35:17.960Z,101706.81
2022-10-17T23:38:20.120Z,101707.09
2022-10-17T23:41:22.479Z,101708.19
2022-10-17T23:44:24.607Z,101706.81
2022-10-17T23:47:26.977Z,101709.00
2022-10-17T23:50:29.055Z,101698.19
2022-10-17T23:53:31.590Z,101699.53
2022-10-17T23:56:33.664Z,101704.69
2022-10-17T23:59:36.231Z,101704.13
